Time;durP1;ratioP1;P1;durP2;ratioP2;P2;SDS_P1;SDS_P2;PMS_P1;PMS_P2;Temp;Humidity;BMP_temperature;BMP_pressure;BME280_temperature;BME280_humidity;BME280_pressure;Samples;Min_cycle;Max_cycle;Signal;HPM_P1;HPM_P2
2023/07/10 00:00:26;;;;;;;;;;;;;;;25.27;40.28;101400.09;4139485;28;19932;-69
2023/07/10 00:02:30;;;;;;;;;;;;;;;25.25;40.82;101402.28;4139378;28;20336;-69
2023/07/10 00:04:32;;;;;;;;;;;;;;;25.25;40.83;101394.84;4139683;28;20012;-69
2023/07/10 00:06:33;;;;;;;;;;;;;;;25.23;40.83;101397.00;4139190;28;20080;-69
2023/07/10 00:08:35;;;;;;;;;;;;;;;25.19;40.63;101405.00;4139269;28;20028;-69
2023/07/10 00:10:37;;;;;;;;;;;;;;;25.15;40.84;101403.84;4139664;28;20012;-69
2023/07/10 00:12:39;;;;;;;;;;;;;;;25.17;40.94;101401.66;4136390;28;20020;-69
2023/07/10 00:14:41;;;;;;;;;;;;;;;25.15;41.43;101403.00;4140048;28;20020;-69
2023/07/10 00:16:42;;;;;;;;;;;;;;;25.13;41.28;101399.69;4138907;28;20008;-70
2023/07/10 00:18:46;;;;;;;;;;;;;;;25.12;40.73;101401.59;4139905;28;20291;-69
2023/07/10 00:20:48;;;;;;;;;;;;;;;25.12;40.58;101404.34;4139140;28;19984;-69
2023/07/10 00:22:50;;;;;;;;;;;;;;;25.12;40.50;101398.00;4140048;28;20044;-70
2023/07/10 00:24:52;;;;;;;;;;;;;;;25.15;40.17;101394.72;4138818;28;20016;-72
2023/07/10 00:26:54;;;;;;;;;;;;;;;25.15;39.82;101395.53;4139090;28;20023;-69
2023/07/10 00:28:57;;;;;;;;;;;;;;;25.21;39.70;101387.31;4138755;28;20019;-69
2023/07/10 00:30:59;;;;;;;;;;;;;;;25.24;39.72;101395.94;4153910;28;20021;-68
2023/07/10 00:33:01;;;;;;;;;;;;;;;25.27;39.38;101391.81;4138227;28;20020;-70
2023/07/10 00:35:05;;;;;;;;;;;;;;;25.28;39.46;101397.13;4138890;28;20012;-70
2023/07/10 00:37:07;;;;;;;;;;;;;;;25.25;39.28;101399.50;4153529;28;20007;-69
2023/07/10 00:39:15;;;;;;;;;;;;;;;25.20;39.76;101397.53;4138953;28;20032;-69
2023/07/10 00:41:17;;;;;;;;;;;;;;;25.16;40.01;101401.91;4154088;28;19921;-70
2023/07/10 00:43:22;;;;;;;;;;;;;;;25.12;40.00;101404.34;4154040;28;20008;-69
2023/07/10 00:45:24;;;;;;;;;;;;;;;25.13;39.42;101408.78;4154079;28;20023;-70
2023/07/10 00:47:28;;;;;;;;;;;;;;;25.13;40.13;101397.72;4138106;28;20017;-69
2023/07/10 00:49:41;;;;;;;;;;;;;;;25.10;40.62;101394.66;4139403;28;20495;-70
2023/07/10 00:51:45;;;;;;;;;;;;;;;25.08;40.41;101411.50;4138537;28;20008;-69
2023/07/10 00:53:47;;;;;;;;;;;;;;;25.05;40.91;101420.31;4138605;28;20373;-69
2023/07/10 00:55:49;;;;;;;;;;;;;;;25.03;41.27;101425.25;4138366;28;20008;-70
2023/07/10 00:57:51;;;;;;;;;;;;;;;25.02;41.26;101428.28;4138932;28;20023;-69
2023/07/10 00:59:53;;;;;;;;;;;;;;;25.02;41.27;101433.81;4138972;28;20048;-70
2023/07/10 01:02:14;;;;;;;;;;;;;;;25.02;41.43;101444.88;4152663;28;19930;-70
2023/07/10 01:04:16;;;;;;;;;;;;;;;25.02;41.52;101447.63;4138738;28;20016;-70
2023/07/10 01:06:19;;;;;;;;;;;;;;;24.97;42.04;101456.69;4153456;28;20024;-69
2023/07/10 01:08:23;;;;;;;;;;;;;;;24.93;42.08;101453.59;4154112;28;20040;-69
2023/07/10 01:10:25;;;;;;;;;;;;;;;24.92;41.98;101451.94;4153541;28;20016;-69
2023/07/10 01:12:27;;;;;;;;;;;;;;;24.94;41.99;101459.97;4153501;28;20714;-70
2023/07/10 01:14:34;;;;;;;;;;;;;;;24.96;42.08;101466.88;4139100;28;20016;-70
2023/07/10 01:16:37;;;;;;;;;;;;;;;25.00;42.04;101478.28;4152303;28;20011;-70
2023/07/10 01:18:39;;;;;;;;;;;;;;;25.03;42.05;101479.69;4139130;28;20033;-70
2023/07/10 01:20:43;;;;;;;;;;;;;;;25.03;42.01;101477.75;4135992;28;20499;-71
2023/07/10 01:22:46;;;;;;;;;;;;;;;25.02;41.57;101484.38;4137395;28;21317;-71
2023/07/10 01:24:52;;;;;;;;;;;;;;;25.01;41.48;101482.69;4138950;28;20048;-70
2023/07/10 01:26:54;;;;;;;;;;;;;;;25.00;41.08;101476.34;4138308;28;20021;-70
2023/07/10 01:28:56;;;;;;;;;;;;;;;25.01;41.03;101477.16;4137949;28;20013;-70
2023/07/10 01:30:57;;;;;;;;;;;;;;;25.02;40.88;101480.78;4138189;28;20016;-71
2023/07/10 01:32:59;;;;;;;;;;;;;;;25.02;40.56;101478.03;4138440;28;19931;-70
2023/07/10 01:35:02;;;;;;;;;;;;;;;25.02;40.54;101475.25;4138515;28;20358;-69
2023/07/10 01:37:05;;;;;;;;;;;;;;;25.02;40.92;101469.75;4153523;28;20004;-70
2023/07/10 01:39:19;;;;;;;;;;;;;;;24.98;40.77;101461.97;4138418;28;20450;-70
2023/07/10 01:41:24;;;;;;;;;;;;;;;24.98;40.61;101452.81;4138068;28;20016;-70
2023/07/10 01:43:26;;;;;;;;;;;;;;;24.96;40.24;101436.50;4136402;28;20435;-70
2023/07/10 01:45:40;;;;;;;;;;;;;;;24.96;40.07;101442.00;4138568;28;20133;-70
2023/07/10 01:47:42;;;;;;;;;;;;;;;24.98;40.58;101441.75;4138139;28;20372;-70
2023/07/10 01:49:44;;;;;;;;;;;;;;;24.98;40.89;101430.72;4137866;28;20475;-69
2023/07/10 01:51:46;;;;;;;;;;;;;;;24.97;41.42;101429.88;4152019;28;20414;-70
2023/07/10 01:53:49;;;;;;;;;;;;;;;24.97;42.94;101431.81;4139230;28;20028;-70
2023/07/10 01:55:52;;;;;;;;;;;;;;;24.96;43.53;101428.19;4138050;28;20016;-70
2023/07/10 01:57:54;;;;;;;;;;;;;;;24.93;43.24;101417.66;4153488;28;20031;-70
2023/07/10 01:59:56;;;;;;;;;;;;;;;24.89;43.76;101410.16;4152515;28;20359;-70
2023/07/10 02:01:59;;;;;;;;;;;;;;;24.87;44.12;101401.28;4138000;28;20016;-70
2023/07/10 02:04:01;;;;;;;;;;;;;;;24.86;44.22;101386.66;4137428;28;20482;-70
2023/07/10 02:06:03;;;;;;;;;;;;;;;24.88;43.74;101370.63;4137413;28;20025;-69
2023/07/10 02:08:06;;;;;;;;;;;;;;;24.91;43.24;101374.81;4136822;28;20016;-70
2023/07/10 02:10:08;;;;;;;;;;;;;;;24.89;43.39;101365.94;4137207;28;20431;-70
2023/07/10 02:12:12;;;;;;;;;;;;;;;24.90;43.62;101365.69;4136297;28;20008;-69
2023/07/10 02:14:13;;;;;;;;;;;;;;;24.86;43.92;101363.69;4138109;28;20012;-70
2023/07/10 02:16:15;;;;;;;;;;;;;;;24.83;44.22;101370.59;4136967;28;20372;-69
2023/07/10 02:18:17;;;;;;;;;;;;;;;24.81;44.18;101367.22;4151719;28;20015;-69
2023/07/10 02:20:19;;;;;;;;;;;;;;;24.76;44.33;101359.72;4136106;28;20028;-69
2023/07/10 02:22:21;;;;;;;;;;;;;;;24.73;44.85;101346.41;4136228;28;20009;-69
2023/07/10 02:24:22;;;;;;;;;;;;;;;24.68;44.46;101351.88;4152692;28;20426;-69
2023/07/10 02:26:26;;;;;;;;;;;;;;;24.64;43.80;101340.53;4135974;28;20048;-69
2023/07/10 02:28:28;;;;;;;;;;;;;;;24.65;43.37;101333.06;4137164;28;20510;-70
2023/07/10 02:30:30;;;;;;;;;;;;;;;24.73;43.76;101329.84;4138496;28;20016;-70
2023/07/10 02:32:32;;;;;;;;;;;;;;;24.74;43.74;101331.53;4136947;28;20478;-69
2023/07/10 02:34:34;;;;;;;;;;;;;;;24.74;44.15;101337.03;4153277;28;20011;-69
2023/07/10 02:36:37;;;;;;;;;;;;;;;24.73;44.09;101342.81;4136748;28;20016;-69
2023/07/10 02:38:39;;;;;;;;;;;;;;;24.69;44.01;101352.75;4153091;28;20008;-69
2023/07/10 02:40:41;;;;;;;;;;;;;;;24.64;43.79;101354.34;4137294;28;20016;-69
2023/07/10 02:42:43;;;;;;;;;;;;;;;24.61;44.06;101342.97;4136444;28;20021;-69
2023/07/10 02:44:46;;;;;;;;;;;;;;;24.60;44.06;101335.78;4152322;28;19944;-69
2023/07/10 02:46:48;;;;;;;;;;;;;;;24.58;44.38;101336.03;4152298;28;20015;-69
2023/07/10 02:48:50;;;;;;;;;;;;;;;24.58;44.35;101341.53;4152607;28;20020;-69
2023/07/10 02:50:52;;;;;;;;;;;;;;;24.60;44.22;101341.28;4135888;28;20472;-69
2023/07/10 02:52:54;;;;;;;;;;;;;;;24.60;44.09;101330.25;4135592;28;20464;-70
2023/07/10 02:54:56;;;;;;;;;;;;;;;24.64;43.82;101328.66;4137178;28;20024;-69
2023/07/10 02:56:57;;;;;;;;;;;;;;;24.67;43.56;101327.28;4151812;28;20040;-69
2023/07/10 02:58:59;;;;;;;;;;;;;;;24.69;43.15;101337.00;4135379;28;20347;-70
2023/07/10 03:01:02;;;;;;;;;;;;;;;24.70;43.27;101315.72;4151269;28;20012;-69
2023/07/10 03:03:04;;;;;;;;;;;;;;;24.67;43.21;101311.56;4136234;28;20012;-69
2023/07/10 03:05:07;;;;;;;;;;;;;;;24.64;43.16;101310.16;4138416;28;19925;-69
2023/07/10 03:07:09;;;;;;;;;;;;;;;24.66;43.10;101303.53;4136070;28;20012;-69
2023/07/10 03:09:11;;;;;;;;;;;;;;;24.67;42.88;101291.38;4134899;28;20362;-69
2023/07/10 03:11:13;;;;;;;;;;;;;;;24.62;42.83;101293.00;4152284;28;20015;-69
2023/07/10 03:13:15;;;;;;;;;;;;;;;24.56;43.14;101279.34;4136657;28;20012;-69
2023/07/10 03:15:17;;;;;;;;;;;;;;;24.55;43.20;101280.47;4136863;28;19957;-69
2023/07/10 03:17:20;;;;;;;;;;;;;;;24.54;42.81;101267.72;4137036;28;20044;-70
2023/07/10 03:19:22;;;;;;;;;;;;;;;24.55;42.75;101261.94;4137077;28;20012;-70
2023/07/10 03:21:26;;;;;;;;;;;;;;;24.56;42.83;101266.41;4136283;28;20016;-70
2023/07/10 03:23:28;;;;;;;;;;;;;;;24.56;43.18;101262.78;4136601;28;20032;-69
2023/07/10 03:25:30;;;;;;;;;;;;;;;24.53;43.01;101264.16;4137150;28;20492;-69
2023/07/10 03:27:32;;;;;;;;;;;;;;;24.52;43.36;101261.66;4136492;28;20033;-70
2023/07/10 03:29:35;;;;;;;;;;;;;;;24.50;42.89;101258.28;4136727;28;20055;-70
2023/07/10 03:31:37;;;;;;;;;;;;;;;24.47;43.06;101256.91;4136197;28;20362;-69
2023/07/10 03:33:40;;;;;;;;;;;;;;;24.45;42.77;101257.16;4137304;28;20016;-69
2023/07/10 03:35:42;;;;;;;;;;;;;;;24.50;42.76;101267.41;4136716;28;20446;-69
2023/07/10 03:37:44;;;;;;;;;;;;;;;24.51;43.00;101277.34;4136686;28;20020;-69
2023/07/10 03:39:46;;;;;;;;;;;;;;;24.47;42.69;101270.69;4136426;28;20017;-69
2023/07/10 03:41:48;;;;;;;;;;;;;;;24.45;42.90;101265.44;4135906;28;20033;-69
2023/07/10 03:43:49;;;;;;;;;;;;;;;24.38;42.97;101264.78;4136971;28;20025;-69
2023/07/10 03:45:51;;;;;;;;;;;;;;;24.34;42.95;101255.38;4135774;28;19921;-68
2023/07/10 03:47:53;;;;;;;;;;;;;;;24.33;43.30;101253.69;4136505;28;20521;-70
2023/07/10 03:49:56;;;;;;;;;;;;;;;24.39;43.28;101260.94;4136105;28;20637;-69
2023/07/10 03:51:58;;;;;;;;;;;;;;;24.36;43.41;101275.25;4135998;28;20577;-69
2023/07/10 03:54:00;;;;;;;;;;;;;;;24.34;43.53;101271.06;4136538;28;20499;-69
2023/07/10 03:56:02;;;;;;;;;;;;;;;24.29;44.03;101271.84;4136172;28;20015;-70
2023/07/10 03:58:15;;;;;;;;;;;;;;;24.23;44.06;101272.84;4136722;28;20020;-69
2023/07/10 04:00:17;;;;;;;;;;;;;;;24.20;43.96;101262.31;4136815;28;20028;-70
2023/07/10 04:02:19;;;;;;;;;;;;;;;24.09;44.06;101255.84;4136495;28;20052;-69
2023/07/10 04:04:21;;;;;;;;;;;;;;;24.09;44.25;101250.31;4136505;28;20023;-68
2023/07/10 04:06:24;;;;;;;;;;;;;;;24.13;44.34;101258.94;4135632;28;19925;-69
2023/07/10 04:08:28;;;;;;;;;;;;;;;24.13;44.85;101261.69;4136855;28;20017;-70
2023/07/10 04:10:30;;;;;;;;;;;;;;;24.10;45.32;101250.06;4134804;28;20013;-71
2023/07/10 04:12:32;;;;;;;;;;;;;;;24.07;45.46;101252.50;4136550;28;20459;-71
2023/07/10 04:14:36;;;;;;;;;;;;;;;23.99;45.14;101241.91;4136696;28;20016;-71
2023/07/10 04:16:38;;;;;;;;;;;;;;;23.98;45.15;101238.34;4136000;28;20443;-70
2023/07/10 04:18:41;;;;;;;;;;;;;;;23.98;45.23;101234.72;4135779;28;20012;-70
2023/07/10 04:20:43;;;;;;;;;;;;;;;24.02;45.36;101230.38;4138920;28;20085;-71
2023/07/10 04:22:46;;;;;;;;;;;;;;;24.06;45.33;101235.13;4139391;28;20033;-71
2023/07/10 04:24:48;;;;;;;;;;;;;;;24.08;45.43;101235.69;4139223;28;20033;-70
2023/07/10 04:26:51;;;;;;;;;;;;;;;24.05;45.53;101227.94;4137955;28;19925;-70
2023/07/10 04:28:54;;;;;;;;;;;;;;;24.06;45.43;101228.75;4139048;28;20032;-71
2023/07/10 04:30:56;;;;;;;;;;;;;;;24.07;45.24;101220.22;4137327;28;20428;-71
2023/07/10 04:32:58;;;;;;;;;;;;;;;24.10;45.13;101213.38;4138127;28;20029;-71
2023/07/10 04:35:00;;;;;;;;;;;;;;;24.14;45.27;101210.91;4154107;28;20016;-71
2023/07/10 04:37:02;;;;;;;;;;;;;;;24.17;45.40;101215.94;4138108;28;20012;-71
2023/07/10 04:39:05;;;;;;;;;;;;;;;24.20;45.43;101201.63;4139007;28;20332;-70
2023/07/10 04:41:08;;;;;;;;;;;;;;;24.23;45.17;101201.97;4138243;28;20025;-70
2023/07/10 04:43:10;;;;;;;;;;;;;;;24.27;45.14;101197.56;4138262;28;20515;-70
2023/07/10 04:45:12;;;;;;;;;;;;;;;24.26;44.87;101198.69;4137946;28;20589;-70
2023/07/10 04:47:14;;;;;;;;;;;;;;;24.26;44.85;101206.97;4136294;28;19992;-70
2023/07/10 04:49:19;;;;;;;;;;;;;;;24.25;45.12;101197.00;4138695;28;20012;-70
2023/07/10 04:51:21;;;;;;;;;;;;;;;24.24;44.81;101211.88;4137708;28;20079;-71
2023/07/10 04:53:23;;;;;;;;;;;;;;;24.24;45.13;101209.13;4138236;28;20012;-70
2023/07/10 04:55:26;;;;;;;;;;;;;;;24.25;44.73;101209.97;4137819;28;20013;-71
2023/07/10 04:57:28;;;;;;;;;;;;;;;24.25;44.35;101218.25;4137150;28;20016;-71
2023/07/10 04:59:30;;;;;;;;;;;;;;;24.28;44.31;101231.53;4152287;28;20024;-70
2023/07/10 05:01:33;;;;;;;;;;;;;;;24.30;44.26;101248.69;4137622;28;20045;-70
2023/07/10 05:03:35;;;;;;;;;;;;;;;24.29;45.16;101272.69;4153435;28;20019;-71
2023/07/10 05:05:37;;;;;;;;;;;;;;;24.26;44.93;101283.38;4137622;28;20021;-70
2023/07/10 05:07:39;;;;;;;;;;;;;;;24.21;44.53;101281.41;4137448;28;20032;-70
2023/07/10 05:09:41;;;;;;;;;;;;;;;24.13;44.83;101256.19;4137185;28;20012;-70
2023/07/10 05:11:44;;;;;;;;;;;;;;;24.07;45.50;101247.81;4136093;28;20016;-69
2023/07/10 05:13:46;;;;;;;;;;;;;;;24.07;45.51;101231.25;4134067;28;20036;-70
2023/07/10 05:15:48;;;;;;;;;;;;;;;24.13;45.45;101236.88;4134244;28;20446;-71
2023/07/10 05:17:50;;;;;;;;;;;;;;;24.18;45.25;101259.81;4137113;28;20031;-71
2023/07/10 05:19:52;;;;;;;;;;;;;;;24.21;45.84;101286.91;4134462;28;20630;-69
2023/07/10 05:21:54;;;;;;;;;;;;;;;24.18;45.97;101309.50;4131426;28;20017;-70
2023/07/10 05:23:56;;;;;;;;;;;;;;;24.15;45.88;101309.19;4133474;28;20012;-70
2023/07/10 05:25:59;;;;;;;;;;;;;;;24.11;45.84;101301.41;4136968;28;20028;-68
2023/07/10 05:28:01;;;;;;;;;;;;;;;24.07;46.13;101311.28;4137763;28;19972;-69
2023/07/10 05:30:03;;;;;;;;;;;;;;;24.05;46.93;101341.06;4135595;28;20017;-69
2023/07/10 05:32:05;;;;;;;;;;;;;;;24.08;47.31;101378.34;4134965;28;20009;-69
2023/07/10 05:34:07;;;;;;;;;;;;;;;24.06;47.84;101416.38;4135659;28;20033;-70
2023/07/10 05:36:11;;;;;;;;;;;;;;;24.04;48.96;101484.78;4134375;28;20020;-70
2023/07/10 05:38:13;;;;;;;;;;;;;;;23.99;50.17;101448.84;4135724;28;20017;-70
2023/07/10 05:40:15;;;;;;;;;;;;;;;23.89;50.85;101391.56;4134686;28;20451;-69
2023/07/10 05:42:17;;;;;;;;;;;;;;;23.80;52.41;101493.16;4135934;28;20020;-69
2023/07/10 05:44:21;;;;;;;;;;;;;;;23.78;51.81;101500.84;4135574;28;20458;-69
2023/07/10 05:46:23;;;;;;;;;;;;;;;23.68;52.55;101426.19;4136338;28;20008;-70
2023/07/10 05:48:25;;;;;;;;;;;;;;;23.60;52.61;101408.13;4136803;28;20020;-70
2023/07/10 05:50:27;;;;;;;;;;;;;;;23.56;53.41;101438.13;4136784;28;20040;-70
2023/07/10 05:52:29;;;;;;;;;;;;;;;23.47;53.99;101428.56;4135940;28;20332;-69
2023/07/10 05:54:31;;;;;;;;;;;;;;;23.42;54.50;101417.47;4137440;28;20619;-69
2023/07/10 05:56:32;;;;;;;;;;;;;;;23.42;55.27;101435.91;4136656;28;20009;-68
2023/07/10 05:58:35;;;;;;;;;;;;;;;23.43;57.01;101443.09;4136483;28;20008;-69
2023/07/10 06:00:38;;;;;;;;;;;;;;;23.40;57.77;101419.59;4136065;28;20023;-69
2023/07/10 06:02:40;;;;;;;;;;;;;;;23.39;58.23;101395.91;4138024;28;20015;-69
2023/07/10 06:04:42;;;;;;;;;;;;;;;23.36;58.76;101377.09;4138240;28;20024;-69
2023/07/10 06:06:44;;;;;;;;;;;;;;;23.38;58.79;101373.00;4137244;28;20387;-69
2023/07/10 06:08:46;;;;;;;;;;;;;;;23.36;59.66;101377.09;4137825;28;20443;-70
2023/07/10 06:10:48;;;;;;;;;;;;;;;23.31;60.17;101377.84;4137891;28;20837;-69
2023/07/10 06:12:50;;;;;;;;;;;;;;;23.22;59.84;101368.28;4137353;28;20431;-70
2023/07/10 06:14:52;;;;;;;;;;;;;;;23.16;59.83;101358.25;4137566;28;20008;-71
2023/07/10 06:16:55;;;;;;;;;;;;;;;23.02;60.90;101336.50;4136685;28;20012;-69
2023/07/10 06:18:57;;;;;;;;;;;;;;;22.85;61.94;101319.06;4134791;28;20605;-67
2023/07/10 06:20:59;;;;;;;;;;;;;;;22.86;61.91;101316.06;4135033;28;20016;-69
2023/07/10 06:23:01;;;;;;;;;;;;;;;22.92;62.45;101313.44;4136551;28;20012;-67
2023/07/10 06:25:04;;;;;;;;;;;;;;;23.01;62.54;101320.22;4137366;28;20020;-67
2023/07/10 06:27:06;;;;;;;;;;;;;;;23.06;62.96;101312.03;4137537;28;20012;-67
2023/07/10 06:29:08;;;;;;;;;;;;;;;23.08;62.93;101300.78;4136177;28;20451;-66
2023/07/10 06:31:10;;;;;;;;;;;;;;;23.11;63.65;101311.34;4136467;28;20511;-67
2023/07/10 06:33:14;;;;;;;;;;;;;;;23.08;62.78;101325.56;4137326;28;20443;-68
2023/07/10 06:35:16;;;;;;;;;;;;;;;23.11;63.26;101316.84;4137568;28;20017;-67
2023/07/10 06:37:18;;;;;;;;;;;;;;;23.08;63.15;101318.16;4136932;28;20028;-67
2023/07/10 06:39:20;;;;;;;;;;;;;;;23.09;63.14;101308.81;4137320;28;20031;-67
2023/07/10 06:41:22;;;;;;;;;;;;;;;23.13;63.10;101289.88;4136360;28;20020;-68
2023/07/10 06:43:23;;;;;;;;;;;;;;;23.15;63.49;101284.94;4137181;28;20016;-67
2023/07/10 06:45:25;;;;;;;;;;;;;;;23.16;63.48;101275.59;4137388;28;20011;-67
2023/07/10 06:47:27;;;;;;;;;;;;;;;23.24;63.16;101271.59;4137348;28;20028;-68
2023/07/10 06:49:30;;;;;;;;;;;;;;;23.29;63.04;101267.03;4136118;28;20482;-67
2023/07/10 06:51:33;;;;;;;;;;;;;;;23.31;63.14;101256.56;4136613;28;20368;-67
2023/07/10 06:53:35;;;;;;;;;;;;;;;23.32;62.55;101258.25;4137653;28;20023;-68
2023/07/10 06:55:37;;;;;;;;;;;;;;;23.35;62.77;101256.91;4137634;28;20018;-67
2023/07/10 06:57:39;;;;;;;;;;;;;;;23.38;63.09;101259.16;4136551;28;20016;-67
2023/07/10 06:59:40;;;;;;;;;;;;;;;23.41;62.28;101257.84;4137395;28;20021;-67
2023/07/10 07:01:42;;;;;;;;;;;;;;;23.44;62.67;101263.69;4136457;28;20008;-66
2023/07/10 07:03:44;;;;;;;;;;;;;;;23.45;61.72;101265.34;4136668;28;20370;-67
2023/07/10 07:05:48;;;;;;;;;;;;;;;23.42;61.33;101262.25;4136337;28;20012;-67
2023/07/10 07:07:50;;;;;;;;;;;;;;;23.47;62.15;101260.41;4136509;28;20012;-68
2023/07/10 07:09:52;;;;;;;;;;;;;;;23.53;62.00;101256.66;4136827;28;19929;-68
2023/07/10 07:11:54;;;;;;;;;;;;;;;23.59;61.53;101257.59;4136604;28;20000;-68
2023/07/10 07:13:56;;;;;;;;;;;;;;;23.65;61.76;101253.81;4135888;28;20012;-67
2023/07/10 07:15:58;;;;;;;;;;;;;;;23.68;62.08;101253.31;4137399;28;20028;-67
2023/07/10 07:18:00;;;;;;;;;;;;;;;23.73;61.57;101242.34;4136287;28;20017;-67
2023/07/10 07:20:02;;;;;;;;;;;;;;;23.77;61.42;101252.88;4138348;28;20031;-68
2023/07/10 07:22:05;;;;;;;;;;;;;;;23.80;62.08;101250.44;4136067;28;20024;-68
2023/07/10 07:24:08;;;;;;;;;;;;;;;23.82;61.89;101258.47;4136946;28;20028;-67
2023/07/10 07:26:09;;;;;;;;;;;;;;;23.84;61.94;101254.41;4136297;28;20016;-68
2023/07/10 07:28:12;;;;;;;;;;;;;;;23.84;61.16;101242.53;4136232;28;20012;-68
2023/07/10 07:30:14;;;;;;;;;;;;;;;23.87;61.80;101245.63;4136204;28;20465;-67
2023/07/10 07:32:16;;;;;;;;;;;;;;;23.91;61.85;101237.66;4136226;28;20016;-68
2023/07/10 07:34:18;;;;;;;;;;;;;;;23.90;60.51;101239.59;4136686;28;20009;-68
2023/07/10 07:36:20;;;;;;;;;;;;;;;23.90;60.12;101238.75;4136096;28;20020;-67
2023/07/10 07:38:23;;;;;;;;;;;;;;;23.91;59.98;101241.25;4136519;28;20436;-68
2023/07/10 07:40:25;;;;;;;;;;;;;;;23.91;59.22;101234.91;4136418;28;20031;-69
2023/07/10 07:42:27;;;;;;;;;;;;;;;23.95;58.85;101243.50;4136087;28;20024;-67
2023/07/10 07:44:29;;;;;;;;;;;;;;;23.99;58.81;101236.41;4136424;28;20040;-67
2023/07/10 07:46:32;;;;;;;;;;;;;;;24.02;58.62;101238.66;4136322;28;20013;-67
2023/07/10 07:48:34;;;;;;;;;;;;;;;24.04;57.62;101236.47;4152346;28;20024;-67
2023/07/10 07:50:36;;;;;;;;;;;;;;;24.05;57.84;101232.63;4136278;28;20367;-68
2023/07/10 07:52:38;;;;;;;;;;;;;;;24.11;57.48;101226.09;4135785;28;20011;-67
2023/07/10 07:54:42;;;;;;;;;;;;;;;24.14;57.18;101225.56;4137553;28;20348;-67
2023/07/10 07:56:44;;;;;;;;;;;;;;;24.17;56.50;101236.09;4139450;28;20005;-68
2023/07/10 07:58:46;;;;;;;;;;;;;;;24.23;56.76;101239.75;4139667;28;20012;-68
2023/07/10 08:00:48;;;;;;;;;;;;;;;24.28;56.89;101232.38;4138990;28;20380;-69
2023/07/10 08:02:50;;;;;;;;;;;;;;;24.29;55.98;101231.28;4139277;28;20013;-69
2023/07/10 08:04:52;;;;;;;;;;;;;;;24.33;55.23;101225.25;4139783;28;20557;-69
2023/07/10 08:06:54;;;;;;;;;;;;;;;24.39;55.52;101218.69;4138695;28;20009;-68
2023/07/10 08:08:56;;;;;;;;;;;;;;;24.45;55.84;101226.78;4139044;28;19935;-68
2023/07/10 08:10:59;;;;;;;;;;;;;;;24.50;55.71;101220.47;4139030;28;19922;-68
2023/07/10 08:13:02;;;;;;;;;;;;;;;24.52;54.60;101223.81;4140288;28;20048;-68
2023/07/10 08:15:04;;;;;;;;;;;;;;;24.57;54.42;101223.06;4139489;28;20020;-68
2023/07/10 08:17:07;;;;;;;;;;;;;;;24.62;54.70;101225.88;4137799;28;20463;-67
2023/07/10 08:19:09;;;;;;;;;;;;;;;24.68;55.13;101235.06;4139446;28;20016;-67
2023/07/10 08:21:12;;;;;;;;;;;;;;;24.75;55.26;101231.00;4138905;28;20020;-67
2023/07/10 08:23:14;;;;;;;;;;;;;;;24.78;55.03;101229.63;4139568;28;20044;-68
2023/07/10 08:25:15;;;;;;;;;;;;;;;24.83;55.00;101226.94;4140457;28;20012;-67
2023/07/10 08:27:18;;;;;;;;;;;;;;;24.89;54.78;101227.81;4139515;28;19928;-67
2023/07/10 08:29:24;;;;;;;;;;;;;;;24.87;54.32;101217.00;4138379;28;20503;-67
2023/07/10 08:31:26;;;;;;;;;;;;;;;24.88;53.92;101215.94;4138647;28;20020;-68
2023/07/10 08:33:27;;;;;;;;;;;;;;;24.93;54.17;101215.16;4139624;28;20023;-67
2023/07/10 08:35:29;;;;;;;;;;;;;;;24.97;54.06;101217.13;4139572;28;20407;-69
2023/07/10 08:37:31;;;;;;;;;;;;;;;25.05;54.23;101212.19;4138484;28;20087;-67
2023/07/10 08:39:33;;;;;;;;;;;;;;;25.11;53.92;101206.47;4138596;28;20013;-69
2023/07/10 08:41:35;;;;;;;;;;;;;;;25.17;53.23;101212.88;4153461;28;19961;-68
2023/07/10 08:43:38;;;;;;;;;;;;;;;25.16;53.23;101213.97;4138991;28;20017;-68
2023/07/10 08:45:40;;;;;;;;;;;;;;;25.21;53.62;101208.47;4138905;28;20038;-67
2023/07/10 08:47:44;;;;;;;;;;;;;;;25.29;53.44;101207.19;4138085;28;20417;-69
2023/07/10 08:49:53;;;;;;;;;;;;;;;25.33;54.07;101214.69;4138031;28;20016;-68
2023/07/10 08:51:56;;;;;;;;;;;;;;;25.39;53.23;101211.97;4137962;28;19921;-68
2023/07/10 08:53:59;;;;;;;;;;;;;;;25.44;52.60;101223.06;4138583;28;20000;-68
2023/07/10 08:56:03;;;;;;;;;;;;;;;25.49;52.52;101217.56;4138577;28;20001;-67
2023/07/10 08:58:05;;;;;;;;;;;;;;;25.54;52.61;101223.97;4138572;28;20044;-69
2023/07/10 09:00:10;;;;;;;;;;;;;;;25.60;51.69;101227.59;4138193;28;20415;-67
2023/07/10 09:02:15;;;;;;;;;;;;;;;25.66;51.78;101217.41;4137844;28;20004;-69
2023/07/10 09:04:17;;;;;;;;;;;;;;;25.68;51.22;101215.22;4138291;28;20479;-67
2023/07/10 09:06:20;;;;;;;;;;;;;;;25.73;50.72;101212.47;4137014;28;20012;-68
2023/07/10 09:08:22;;;;;;;;;;;;;;;25.78;51.07;101208.91;4138458;28;20016;-68
2023/07/10 09:10:25;;;;;;;;;;;;;;;25.83;51.02;101208.91;4137535;28;20020;-67
2023/07/10 09:12:28;;;;;;;;;;;;;;;25.86;50.80;101211.16;4137984;28;19979;-67
2023/07/10 09:14:33;;;;;;;;;;;;;;;25.89;50.71;101205.94;4139269;28;20011;-66
2023/07/10 09:16:36;;;;;;;;;;;;;;;25.89;49.54;101199.53;4137909;28;20362;-67
2023/07/10 09:18:40;;;;;;;;;;;;;;;25.93;50.32;101199.88;4138330;28;20009;-67
2023/07/10 09:20:42;;;;;;;;;;;;;;;25.97;50.53;101201.84;4138255;28;20036;-67
2023/07/10 09:22:45;;;;;;;;;;;;;;;26.03;50.62;101206.28;4137798;28;20000;-67
2023/07/10 09:24:47;;;;;;;;;;;;;;;26.07;50.65;101204.66;4138432;28;20831;-67
2023/07/10 09:26:49;;;;;;;;;;;;;;;26.12;50.32;101206.63;4137329;28;20031;-66
2023/07/10 09:28:55;;;;;;;;;;;;;;;26.16;50.42;101207.75;4138585;28;20020;-67
2023/07/10 09:30:57;;;;;;;;;;;;;;;26.19;50.03;101220.19;4138125;28;20013;-68
2023/07/10 09:33:04;;;;;;;;;;;;;;;26.21;50.34;101213.28;4137753;28;19925;-67
2023/07/10 09:35:07;;;;;;;;;;;;;;;26.25;49.71;101211.66;4138772;28;20020;-68
2023/07/10 09:37:11;;;;;;;;;;;;;;;26.29;49.79;101203.63;4138091;28;20040;-67
2023/07/10 09:39:13;;;;;;;;;;;;;;;26.30;49.24;101208.09;4137791;28;20041;-66
2023/07/10 09:41:19;;;;;;;;;;;;;;;26.31;49.03;101208.91;4136768;28;20515;-66
2023/07/10 09:43:22;;;;;;;;;;;;;;;26.32;49.37;101207.81;4138308;28;20020;-67
2023/07/10 09:45:23;;;;;;;;;;;;;;;26.35;49.29;101208.09;4138273;28;19952;-67
2023/07/10 09:47:25;;;;;;;;;;;;;;;26.38;49.39;101201.16;4137467;28;20024;-66
2023/07/10 09:49:29;;;;;;;;;;;;;;;26.40;49.09;101204.50;4137191;28;20004;-67
2023/07/10 09:51:31;;;;;;;;;;;;;;;26.44;48.95;101211.16;4137692;28;20032;-67
2023/07/10 09:53:36;;;;;;;;;;;;;;;26.46;49.05;101205.34;4138153;28;20506;-67
2023/07/10 09:55:43;;;;;;;;;;;;;;;26.50;48.84;101203.69;4137765;28;20089;-67
2023/07/10 09:57:57;;;;;;;;;;;;;;;26.53;48.70;101203.16;4137508;28;20370;-66
2023/07/10 10:00:00;;;;;;;;;;;;;;;26.56;48.98;101199.84;4137715;28;20296;-68
2023/07/10 10:02:03;;;;;;;;;;;;;;;26.58;48.58;101187.38;4137131;28;20012;-66
2023/07/10 10:04:06;;;;;;;;;;;;;;;26.60;48.43;101181.56;4137219;28;20046;-67
2023/07/10 10:06:17;;;;;;;;;;;;;;;26.62;48.42;101176.59;4137621;28;20062;-67
2023/07/10 10:08:19;;;;;;;;;;;;;;;26.64;48.67;101182.66;4136832;28;21595;-67
2023/07/10 10:10:23;;;;;;;;;;;;;;;26.67;48.53;101182.16;4137160;28;20009;-67
2023/07/10 10:12:26;;;;;;;;;;;;;;;26.71;48.26;101187.97;4137467;28;20017;-67
2023/07/10 10:14:31;;;;;;;;;;;;;;;26.74;48.21;101187.41;4137640;28;20419;-67
2023/07/10 10:16:36;;;;;;;;;;;;;;;26.77;47.95;101179.41;4137319;28;20029;-67
2023/07/10 10:18:41;;;;;;;;;;;;;;;26.85;48.03;101191.88;4136735;28;20008;-68
2023/07/10 10:20:43;;;;;;;;;;;;;;;26.85;48.13;101180.81;4137711;28;20464;-67
2023/07/10 10:22:47;;;;;;;;;;;;;;;26.89;47.76;101189.38;4151883;28;20065;-67
2023/07/10 10:24:49;;;;;;;;;;;;;;;26.93;47.98;101185.78;4137429;28;20032;-67
2023/07/10 10:26:58;;;;;;;;;;;;;;;26.94;47.99;101178.28;4136863;28;20016;-68
2023/07/10 10:29:17;;;;;;;;;;;;;;;26.96;47.71;101189.97;4137023;28;20020;-69